• Join FlightAware (Why Join?)
  • Login
  • US Flag 
03:04AM EDT


 

Airport Tracker/Info


-or-


 

Live Flight TrackerFlight Track Log ✈ AAY824 ✈ 04-Aug-2014 ✈ KPIE - KDSM

Flight Track Log - Related Links

Times and Time Zones

All times are in EDT time to prevent confusion due to time zone crossing. See the AAY824 flight status page for this flight to view local times or setup timezone preferences in your user account.

Time Position Orientation Groundspeed Altitude Reporting Facility
EDT Latitude Longitude Course Direction KTS MPH feet Rate Location/Type
08:06AM 27.9500 -82.7000 330° Northwest 169 194 1,600  Level Tampa TRACON
08:07AM 27.9833 -82.6833 24° Northeast 205 236 2,900 1,620 Climbing Tampa TRACON
08:08AM 28.0333 -82.6667 16° North 264 304 4,100 540 Climbing Tampa TRACON
08:09AM 28.1167 -82.6667 360° North 278 320 4,000 1,500 Descending Tampa TRACON
08:10AM 28.2281 -82.6764 356° North 280 322 8,000 2,580 Climbing Miami Center
08:11AM 28.2894 -82.6828 355° North 279 321 10,000 1,920 Climbing Jacksonville Center
08:12AM 28.7092 -83.1839 330° Northwest  Level FlightAware Approximate
08:12AM 28.3731 -82.7133 342° North 294 338 11,400  Level Jacksonville Center
08:13AM 28.4669 -82.7650 334° Northwest 326 375 12,600 1,500 Climbing Jacksonville Center
08:14AM 28.5547 -82.8122 335° Northwest 394 453 14,400 1,860 Climbing Jacksonville Center
08:15AM 28.6611 -82.8714 334° Northwest 400 460 16,400 2,040 Climbing Jacksonville Center
08:16AM 28.7803 -82.9375 334° Northwest 416 479 18,500 1,800 Climbing Jacksonville Center
08:17AM 28.8928 -82.9994 334° Northwest 429 494 20,100 1,500 Climbing Jacksonville Center
08:18AM 29.0075 -83.0589 336° Northwest 439 505 21,600 1,320 Climbing Jacksonville Center
08:19AM 29.1264 -83.1231 335° Northwest 457 526 22,800 1,320 Climbing Jacksonville Center
08:20AM 29.2494 -83.1878 335° Northwest 463 533 24,300 1,500 Climbing Jacksonville Center
08:21AM 29.3619 -83.2594 331° Northwest 469 540 25,900 1,620 Climbing Jacksonville Center
08:22AM 29.4725 -83.3386 328° Northwest 464 534 27,600 1,320 Climbing Jacksonville Center
08:23AM 29.5722 -83.4083 329° Northwest 464 534 28,600 1,140 Climbing Jacksonville Center
08:24AM 29.6825 -83.4903 327° Northwest 464 534 29,900 1,200 Climbing Jacksonville Center
08:25AM 29.7928 -83.5675 329° Northwest 464 534 31,100 1,020 Climbing Jacksonville Center
08:26AM 29.9011 -83.6472 327° Northwest 464 534 32,000 420 Climbing Jacksonville Center
08:27AM 30.0092 -83.7250 328° Northwest 464 534 32,000  Level Jacksonville Center
08:28AM 30.1172 -83.8028 328° Northwest 464 534 32,000  Level Jacksonville Center
08:29AM 30.2231 -83.8831 327° Northwest 459 528 32,000  Level Jacksonville Center
08:30AM 30.3331 -83.9611 329° Northwest 459 528 32,000  Level Jacksonville Center
08:31AM 30.4389 -84.0394 327° Northwest 459 528 32,000  Level Jacksonville Center
08:32AM 30.5592 -84.1253 328° Northwest 465 535 32,000  Level Jacksonville Center
08:33AM 30.6647 -84.2064 327° Northwest 459 528 32,000  Level Jacksonville Center
08:34AM 30.7725 -84.2878 327° Northwest 459 528 32,000  Level Jacksonville Center
08:35AM 30.8803 -84.3642 329° Northwest 465 535 32,000  Level Jacksonville Center
08:36AM 30.9692 -84.4311 327° Northwest 465 535 32,000  Level Jacksonville Center
08:37AM 31.0850 -84.5178 327° Northwest 460 529 32,000  Level Jacksonville Center
08:38AM 31.1925 -84.6000 327° Northwest 460 529 32,000  Level Jacksonville Center
08:40AM 31.3814 -84.7394 328° Northwest 454 522 32,000  Level Atlanta Center
08:41AM 31.4875 -84.8206 327° Northwest 454 522 32,000  Level Atlanta Center
08:42AM 31.5933 -84.9019 327° Northwest 454 522 32,000  Level Atlanta Center
08:43AM 31.6992 -84.9811 328° Northwest 454 522 32,000  Level Atlanta Center
08:44AM 31.8050 -85.0603 328° Northwest 454 522 32,000  Level Atlanta Center
08:45AM 31.9128 -85.1375 329° Northwest 459 528 32,000  Level Atlanta Center
08:46AM 32.0186 -85.2194 327° Northwest 459 528 32,000  Level Atlanta Center
08:47AM 32.1242 -85.2994 327° Northwest 459 528 32,000  Level Atlanta Center
08:48AM 32.2278 -85.3819 326° Northwest 459 528 32,000  Level Atlanta Center
08:49AM 32.3353 -85.4622 328° Northwest 459 528 32,000  Level Atlanta Center
08:50AM 32.4408 -85.5425 327° Northwest 459 528 32,000  Level Atlanta Center
08:51AM 32.5464 -85.6208 328° Northwest 459 528 32,000  Level Atlanta Center
08:52AM 32.6517 -85.7067 326° Northwest 459 528 32,000  Level Atlanta Center
08:53AM 32.7569 -85.7850 328° Northwest 459 528 32,000  Level Atlanta Center
08:54AM 32.8622 -85.8689 326° Northwest 459 528 32,000  Level Atlanta Center
08:55AM 32.9653 -85.9528 326° Northwest 459 528 32,000  Level Atlanta Center
08:56AM 33.0706 -86.0294 329° Northwest 459 528 32,000  Level Atlanta Center
08:57AM 33.1756 -86.1161 325° Northwest 459 528 32,000  Level Atlanta Center
08:58AM 33.2786 -86.1981 326° Northwest 459 528 32,000  Level Atlanta Center
08:59AM 33.3836 -86.2803 327° Northwest 459 528 32,000  Level Atlanta Center
09:00AM 33.4864 -86.3653 325° Northwest 459 528 32,000  Level Atlanta Center
09:01AM 33.5994 -86.4531 327° Northwest 453 521 32,000  Level Atlanta Center
09:02AM 33.7022 -86.5333 327° Northwest 443 510 32,000  Level Atlanta Center
09:03AM 33.8047 -86.6189 325° Northwest 443 510 32,000  Level Atlanta Center
09:04AM 33.9075 -86.7019 326° Northwest 443 510 32,000  Level Atlanta Center
09:05AM 33.9644 -86.7475 326° Northwest 447 514 32,000  Level Memphis Center
09:06AM 34.0675 -86.8314 326° Northwest 448 516 32,000  Level Memphis Center
09:07AM 34.1917 -86.9303 327° Northwest 448 516 32,000  Level Memphis Center
09:08AM 34.2950 -87.0150 326° Northwest 448 516 32,000  Level Memphis Center
09:09AM 34.3975 -87.0961 327° Northwest 448 516 32,000  Level Memphis Center
09:10AM 34.4992 -87.1786 326° Northwest 447 514 32,000  Level Memphis Center
09:11AM 34.6197 -87.2786 326° Northwest 447 514 32,000  Level Memphis Center
09:12AM 34.7203 -87.3622 326° Northwest 446 513 32,000  Level Memphis Center
09:13AM 34.8217 -87.4472 325° Northwest 446 513 32,000  Level Memphis Center
09:14AM 34.9250 -87.5311 326° Northwest 446 513 32,000  Level Memphis Center
09:15AM 35.0256 -87.6167 325° Northwest 446 513 32,000  Level Memphis Center
09:16AM 35.1469 -87.7169 326° Northwest 445 512 32,000  Level Memphis Center
09:17AM 35.2467 -87.8014 325° Northwest 444 511 32,000  Level Memphis Center
09:18AM 35.3461 -87.8847 326° Northwest 438 504 32,000  Level Memphis Center
09:19AM 35.4550 -87.9761 326° Northwest 436 502 32,000  Level Memphis Center
09:20AM 35.5539 -88.0603 325° Northwest 432 497 32,000  Level Memphis Center
09:21AM 35.6522 -88.1422 326° Northwest 426 490 32,000  Level Memphis Center
09:22AM 35.7467 -88.2233 325° Northwest 421 484 32,000  Level Memphis Center
09:23AM 35.8439 -88.3050 326° Northwest 421 484 32,000  Level Memphis Center
09:24AM 35.9408 -88.3875 325° Northwest 421 484 32,000  Level Memphis Center
09:25AM 36.0561 -88.4861 325° Northwest 422 486 32,000  Level Memphis Center
09:26AM 36.1519 -88.5692 325° Northwest 421 484 32,000  Level Memphis Center
09:27AM 36.2475 -88.6511 325° Northwest 421 484 32,000  Level Memphis Center
09:28AM 36.3419 -88.7333 325° Northwest 421 484 32,000  Level Memphis Center
09:29AM 36.4372 -88.8147 326° Northwest 420 483 32,000  Level Memphis Center
09:30AM 36.5508 -88.9142 325° Northwest 420 483 32,000  Level Memphis Center
09:32AM 36.6450 -88.9964 325° Northwest 420 483 32,000  Level Memphis Center
09:33AM 36.7389 -89.0792 325° Northwest 419 482 32,000  Level Memphis Center
09:34AM 36.8331 -89.1619 325° Northwest 418 481 32,000  Level Memphis Center
09:35AM 36.9267 -89.2436 325° Northwest 416 479 32,000  Level Memphis Center
09:36AM 37.0197 -89.3275 324° Northwest 416 479 32,000  Level Memphis Center
09:37AM 37.1319 -89.4256 325° Northwest 415 478 32,000  Level Memphis Center
09:38AM 37.2247 -89.5117 324° Northwest 415 478 32,000  Level Memphis Center
09:39AM 37.3186 -89.5939 325° Northwest 414 476 32,000  Level Memphis Center
09:40AM 37.4131 -89.6786 325° Northwest 414 476 32,000  Level Memphis Center
09:41AM 37.5075 -89.7622 325° Northwest 415 478 32,000  Level Memphis Center
09:42AM 37.6019 -89.8483 324° Northwest 415 478 32,000  Level Memphis Center
09:43AM 37.7164 -89.9506 325° Northwest 416 479 32,000  Level Memphis Center
09:44AM 37.8314 -90.0547 324° Northwest 418 481 32,000  Level Kansas City Center
09:45AM 37.9275 -90.1439 324° Northwest 424 488 32,000  Level Kansas City Center
09:46AM 38.0239 -90.2314 324° Northwest 424 488 32,000  Level Kansas City Center
09:47AM 38.1200 -90.3206 324° Northwest 425 489 32,000  Level Kansas City Center
09:48AM 38.2169 -90.4069 325° Northwest 425 489 32,000  Level Kansas City Center
09:49AM 38.3122 -90.4972 323° Northwest 425 489 32,000  Level Kansas City Center
09:50AM 38.4283 -90.6050 324° Northwest 426 490 32,000  Level Kansas City Center
09:51AM 38.5267 -90.6969 324° Northwest 428 493 32,000  Level Kansas City Center
09:52AM 38.6256 -90.7892 324° Northwest 431 496 32,000  Level Kansas City Center
09:53AM 38.7217 -90.8789 324° Northwest 430 495 32,000  Level Kansas City Center
09:55AM 38.8142 -90.9667 324° Northwest 419 482 32,000  Level Kansas City Center
09:56AM 38.9058 -91.0539 323° Northwest 414 476 32,000  Level Kansas City Center
09:57AM 38.9997 -91.1419 324° Northwest 414 476 32,000  Level Kansas City Center
09:58AM 39.1114 -91.2486 323° Northwest 414 476 32,000  Level Kansas City Center
09:59AM 39.2031 -91.3381 323° Northwest 414 476 32,000  Level Kansas City Center
10:00AM 39.2953 -91.4250 324° Northwest 414 476 32,000  Level Kansas City Center
10:01AM 39.3867 -91.5153 323° Northwest 413 475 32,000  Level Kansas City Center
10:02AM 39.4811 -91.6036 324° Northwest 414 476 32,000  Level Kansas City Center
10:03AM 39.5775 -91.6964 323° Northwest 415 478 32,000  Level Kansas City Center
10:04AM 39.6672 -91.7839 323° Northwest 413 475 32,000  Level Kansas City Center
10:05AM 39.7725 -91.8892 322° Northwest 407 468 32,000  Level Kansas City Center
10:06AM 39.8650 -91.9747 325° Northwest 408 470 32,000  Level Kansas City Center
10:07AM 39.9561 -92.0656 323° Northwest 414 476 32,000  Level Kansas City Center
10:08AM 40.0458 -92.1528 323° Northwest 413 475 32,000  Level Kansas City Center
10:09AM 40.1531 -92.2625 322° Northwest 412 474 32,000  Level Kansas City Center
10:10AM 40.2450 -92.3503 324° Northwest 413 475 32,000  Level Kansas City Center
10:11AM 40.3394 -92.4428 323° Northwest 419 482 32,000  Level Kansas City Center
10:12AM 40.4353 -92.5381 323° Northwest 426 490 32,000 -540 Level Kansas City Center
10:13AM 40.5286 -92.6333 322° Northwest 427 491 31,000 -1,980 Descending Kansas City Center
10:14AM 40.6300 -92.7353 323° Northwest 422 486 27,900 -3,360 Descending Kansas City Center
10:15AM 40.7228 -92.8303 322° Northwest 422 486 24,100 -3,300 Descending Kansas City Center
10:16AM 40.8356 -92.9428 323° Northwest 426 490 20,500 -3,900 Descending Chicago Center
10:17AM 40.9414 -93.0486 323° Northwest 408 470 15,500 -4,020 Descending Chicago Center
10:18AM 41.0228 -93.1300 323° Northwest 376 433 12,200 -2,160 Descending Chicago Center
10:19AM 41.0928 -93.1978 324° Northwest 323 372 11,100 -1,200 Descending Chicago Center
10:21AM 41.1617 -93.2525 329° Northwest 294 338 9,700 -1,500 Descending Chicago Center
10:21AM 41.2181 -93.2792 340° North 278 320 8,600 -1,740 Descending Minneapolis Center
10:22AM 41.2442 -93.3075 321° Northwest 282 325 7,800 -1,920 Descending Minneapolis Center
10:22AM 41.2919 -93.3294 341° North 278 320 6,700 -1,860 Descending Minneapolis Center
10:23AM 41.3172 -93.3617 316° Northwest 282 325 5,900 -1,500 Descending Minneapolis Center
10:23AM 41.3617 -93.3803 343° North 281 323 5,200 -1,380 Descending Minneapolis Center
10:24AM 41.3853 -93.4097 317° Northwest 281 323 4,500 -1,380 Descending Minneapolis Center
10:24AM 41.4269 -93.4256 344° North 273 314 3,800 -1,500 Descending Minneapolis Center
10:25AM 41.4569 -93.4569 322° Northwest 271 312 3,000 -840 Descending Minneapolis Center
10:25AM 41.4922 -93.4681 347° North 257 296 3,000  Level Minneapolis Center
10:26AM 41.5147 -93.4867 328° Northwest 223 257 3,000  Level Minneapolis Center
10:26AM 41.5425 -93.4889 357° North 176 203 3,000 -240 Level Minneapolis Center
10:27AM 41.5656 -93.5075 329° Northwest 182 209 2,800 -420 Descending Minneapolis Center
10:27AM 41.5847 -93.5214 332° Northwest 160 184 2,600 -540 Descending Minneapolis Center
10:28AM 41.5819 -93.5592 264° West 167 192 2,300 -600 Descending Minneapolis Center
10:28AM 41.5792 -93.5769 258° West 157 181 2,000 -780 Descending Minneapolis Center
10:29AM 41.5594 -93.6114 233° Southwest 152 175 1,500 -720 Descending Minneapolis Center
10:29AM 41.5569 -93.6219 252° West 143 165 1,300 -720 Descending Minneapolis Center
10:30AM 41.5356 -93.6556 230° Southwest 148 170 800 -240 Descending Minneapolis Center
10:31AM 41.5272 -93.6681 228° Southwest 38 44 900  Climbing Minneapolis Center
10:32AM 41.5297 -93.6633 55° Northeast 19 22 900  Level Minneapolis Center